Time;durP1;ratioP1;P1;durP2;ratioP2;P2;SDS_P1;SDS_P2;PMS_P1;PMS_P2;Temp;Humidity;BMP_temperature;BMP_pressure;BME280_temperature;BME280_humidity;BME280_pressure;Samples;Min_cycle;Max_cycle;Signal;HPM_P1;HPM_P2
2021/08/07 00:01:13;;;;;;;9.25;3.85;;;;;15.60;99944.00;;;;10527950;28;20243;-80
2021/08/07 00:06:15;;;;;;;10.80;4.43;;;;;15.60;99950.00;;;;10511938;28;20189;-80
2021/08/07 00:11:17;;;;;;;7.40;4.87;;;;;15.60;99964.00;;;;10531939;28;20195;-79
2021/08/07 00:16:19;;;;;;;10.13;4.77;;;;;15.60;99957.00;;;;10512399;28;20215;-80
2021/08/07 00:21:21;;;;;;;10.27;4.90;;;;;15.60;99962.00;;;;10495892;28;20194;-79
2021/08/07 00:26:23;;;;;;;7.53;4.63;;;;;15.70;99960.00;;;;10575358;28;20195;-80
2021/08/07 00:31:36;;;;;;;7.27;3.83;;;;;15.70;99960.00;;;;10567297;28;20187;-80
2021/08/07 00:36:39;;;;;;;6.60;4.03;;;;;15.80;99959.00;;;;10562068;28;20302;-80
2021/08/07 00:41:42;;;;;;;8.87;4.93;;;;;15.90;99968.00;;;;10565486;27;20680;-80
2021/08/07 00:46:44;;;;;;;8.27;3.50;;;;;15.90;99950.00;;;;10612046;27;20191;-80
2021/08/07 00:51:49;;;;;;;7.57;4.07;;;;;15.90;99943.00;;;;10584938;27;20198;-80
2021/08/07 00:56:55;;;;;;;13.33;4.70;;;;;15.90;99957.00;;;;10515874;28;20217;-80
2021/08/07 01:02:02;;;;;;;6.10;3.53;;;;;15.90;99944.00;;;;10525627;28;20204;-77
2021/08/07 01:07:30;;;;;;;9.33;3.90;;;;;15.90;99943.00;;;;10513435;28;20644;-77
2021/08/07 01:12:40;;;;;;;8.30;3.80;;;;;15.90;99944.00;;;;10513568;28;20231;-78
2021/08/07 01:17:46;;;;;;;8.53;4.10;;;;;15.80;99960.00;;;;10512754;28;20236;-78
2021/08/07 01:23:15;;;;;;;6.57;4.30;;;;;15.80;99948.00;;;;10525699;27;20195;-77
2021/08/07 01:28:24;;;;;;;9.17;4.13;;;;;15.80;99945.00;;;;10508769;28;20193;-78
2021/08/07 01:33:27;;;;;;;9.07;3.90;;;;;15.80;99943.00;;;;10496036;28;20698;-78
2021/08/07 01:38:36;;;;;;;11.97;4.03;;;;;15.80;99947.00;;;;10496374;28;20213;-78
2021/08/07 01:43:38;;;;;;;10.93;4.43;;;;;15.80;99945.00;;;;10511838;28;20193;-78
2021/08/07 01:49:20;;;;;;;9.43;4.10;;;;;15.80;99936.00;;;;10511408;28;20193;-78
2021/08/07 01:54:34;;;;;;;7.20;3.77;;;;;15.80;99924.00;;;;10529845;27;20206;-77
2021/08/07 01:59:45;;;;;;;8.43;3.77;;;;;15.80;99921.00;;;;10577426;27;20184;-78
2021/08/07 02:04:47;;;;;;;9.13;3.60;;;;;15.70;99922.00;;;;10577777;27;20195;-77
2021/08/07 02:09:57;;;;;;;10.67;3.67;;;;;15.70;99927.00;;;;10578846;27;20187;-78
2021/08/07 02:15:01;;;;;;;12.30;3.47;;;;;15.80;99926.00;;;;10577469;27;20212;-78
2021/08/07 02:20:05;;;;;;;8.27;4.00;;;;;15.80;99921.00;;;;10594329;27;20219;-78
2021/08/07 02:25:07;;;;;;;9.70;3.37;;;;;15.80;99925.00;;;;10510363;28;20255;-78
2021/08/07 02:30:23;;;;;;;11.77;3.10;;;;;15.80;99917.00;;;;10509629;28;20188;-78
2021/08/07 02:35:28;;;;;;;7.60;2.70;;;;;15.80;99912.00;;;;10492926;28;20568;-77
2021/08/07 02:40:31;;;;;;;8.93;3.00;;;;;15.80;99899.00;;;;10493084;28;20533;-77
2021/08/07 02:45:37;;;;;;;9.87;3.07;;;;;15.70;99884.00;;;;10509058;28;20207;-77
2021/08/07 02:50:41;;;;;;;7.30;2.80;;;;;15.60;99878.00;;;;10508459;28;20236;-77
2021/08/07 02:55:45;;;;;;;9.47;3.80;;;;;15.50;99877.00;;;;10509188;28;20201;-77
2021/08/07 03:00:56;;;;;;;7.77;3.40;;;;;15.40;99877.00;;;;10509941;28;20225;-78
2021/08/07 03:06:02;;;;;;;8.17;3.60;;;;;15.30;99870.00;;;;10508650;28;20284;-78
2021/08/07 03:11:07;;;;;;;11.97;3.80;;;;;15.20;99875.00;;;;10508112;28;20200;-77
2021/08/07 03:16:09;;;;;;;8.03;3.43;;;;;15.10;99874.00;;;;10507785;28;20209;-77
2021/08/07 03:21:16;;;;;;;8.80;4.03;;;;;15.00;99869.00;;;;10492109;28;20189;-77
2021/08/07 03:26:32;;;;;;;7.50;4.33;;;;;15.00;99860.00;;;;10509924;28;20219;-78
2021/08/07 03:31:39;;;;;;;9.87;3.73;;;;;14.90;99863.00;;;;10507656;28;20386;-77
2021/08/07 03:36:43;;;;;;;10.83;4.70;;;;;15.00;99863.00;;;;10548641;28;20261;-77
2021/08/07 03:41:48;;;;;;;10.30;3.90;;;;;15.00;99866.00;;;;10549381;28;20198;-78
2021/08/07 03:46:50;;;;;;;10.53;3.77;;;;;15.00;99849.00;;;;10532528;28;20597;-77
2021/08/07 03:51:55;;;;;;;9.40;3.60;;;;;15.00;99855.00;;;;10532924;28;20528;-77
2021/08/07 03:56:57;;;;;;;7.80;3.93;;;;;15.00;99851.00;;;;10565894;28;20253;-77
2021/08/07 04:01:59;;;;;;;9.67;4.07;;;;;15.00;99853.00;;;;10548303;28;20196;-77
2021/08/07 04:07:02;;;;;;;10.00;4.10;;;;;15.10;99851.00;;;;10532514;28;20194;-77
2021/08/07 04:12:17;;;;;;;10.30;4.27;;;;;15.20;99853.00;;;;10533573;28;20195;-78
2021/08/07 04:17:19;;;;;;;6.37;3.43;;;;;15.20;99859.00;;;;10530877;28;20264;-77
2021/08/07 04:22:21;;;;;;;9.40;4.23;;;;;15.20;99844.00;;;;10547075;28;20193;-77
2021/08/07 04:27:23;;;;;;;7.73;3.53;;;;;15.20;99834.00;;;;10522297;28;20644;-77
2021/08/07 04:32:28;;;;;;;8.53;3.70;;;;;15.10;99834.00;;;;10506996;28;20662;-77
2021/08/07 04:37:51;;;;;;;10.17;3.43;;;;;15.00;99829.00;;;;10523159;28;20201;-77
2021/08/07 04:43:01;;;;;;;17.97;3.37;;;;;14.90;99825.00;;;;10505538;28;20291;-77
2021/08/07 04:48:06;;;;;;;6.37;3.70;;;;;14.90;99820.00;;;;10543876;28;20188;-77
2021/08/07 04:53:22;;;;;;;7.87;3.23;;;;;14.90;99830.00;;;;10547724;28;20245;-77
2021/08/07 04:58:30;;;;;;;8.90;3.60;;;;;15.00;99836.00;;;;10515173;28;20210;-77
2021/08/07 05:03:33;;;;;;;5.60;3.27;;;;;15.20;99841.00;;;;10530619;28;20200;-77
2021/08/07 05:08:38;;;;;;;7.00;3.80;;;;;15.40;99832.00;;;;10515083;28;20191;-77
2021/08/07 05:13:40;;;;;;;10.03;3.67;;;;;15.80;99827.00;;;;10530826;28;20196;-78
2021/08/07 05:18:44;;;;;;;9.27;4.20;;;;;16.00;99836.00;;;;10531108;28;20208;-78
2021/08/07 05:23:46;;;;;;;8.23;2.70;;;;;15.80;99828.00;;;;10514346;28;20194;-78
2021/08/07 05:28:49;;;;;;;6.90;3.20;;;;;15.80;99826.00;;;;10547860;28;20184;-78
2021/08/07 05:33:51;;;;;;;6.37;2.93;;;;;15.70;99805.00;;;;10535296;28;20302;-77
2021/08/07 05:38:53;;;;;;;4.23;3.10;;;;;16.00;99810.00;;;;10513117;28;20315;-78
2021/08/07 05:43:55;;;;;;;7.17;3.00;;;;;16.40;99804.00;;;;10546192;28;20250;-77
2021/08/07 05:48:59;;;;;;;8.60;2.97;;;;;16.90;99809.00;;;;10495811;28;20868;-77
2021/08/07 05:54:05;;;;;;;7.25;2.20;;;;;17.10;99823.00;;;;10512308;28;20224;-78
2021/08/07 05:59:07;;;;;;;6.53;2.20;;;;;17.50;99832.00;;;;10495132;28;20215;-77
2021/08/07 06:04:09;;;;;;;5.22;2.25;;;;;18.20;99864.00;;;;10495051;28;20242;-78
2021/08/07 06:09:11;;;;;;;6.57;2.30;;;;;18.70;99879.00;;;;10511443;28;20268;-78
2021/08/07 06:14:14;;;;;;;5.30;2.00;;;;;19.20;99880.00;;;;10528770;28;20235;-77
2021/08/07 06:19:16;;;;;;;4.88;2.55;;;;;19.50;99882.00;;;;10528501;28;20686;-77
2021/08/07 06:24:18;;;;;;;6.97;1.90;;;;;19.00;99870.00;;;;10536628;28;20257;-78
2021/08/07 06:29:21;;;;;;;6.53;2.28;;;;;19.50;99861.00;;;;10552494;28;20639;-78
2021/08/07 06:34:23;;;;;;;6.05;1.90;;;;;20.10;99850.00;;;;10509680;28;20266;-77
2021/08/07 06:39:25;;;;;;;12.20;2.55;;;;;20.50;99840.00;;;;10539695;28;20299;-77
2021/08/07 06:44:28;;;;;;;8.02;2.22;;;;;20.80;99838.00;;;;10529148;28;20220;-77
2021/08/07 06:49:33;;;;;;;5.03;2.28;;;;;21.00;99833.00;;;;10509031;28;20211;-76
2021/08/07 06:54:36;;;;;;;5.20;1.40;;;;;21.20;99817.00;;;;10547151;27;20200;-77
2021/08/07 06:59:38;;;;;;;3.15;1.42;;;;;21.40;99800.00;;;;10593351;27;20869;-77
2021/08/07 07:04:40;;;;;;;6.13;1.65;;;;;21.70;99802.00;;;;10557537;27;20204;-77
2021/08/07 07:09:42;;;;;;;7.47;1.83;;;;;21.90;99803.00;;;;10525256;28;20184;-77
2021/08/07 07:14:45;;;;;;;6.07;2.03;;;;;22.00;99795.00;;;;10520946;28;20196;-77
2021/08/07 07:19:47;;;;;;;4.43;2.15;;;;;22.40;99802.00;;;;10566396;28;20208;-77
2021/08/07 07:24:50;;;;;;;9.07;1.77;;;;;22.50;99796.00;;;;10543024;28;20250;-77
2021/08/07 07:29:52;;;;;;;6.93;1.45;;;;;23.00;99820.00;;;;10524317;28;20193;-77
2021/08/07 07:34:55;;;;;;;2.75;1.30;;;;;23.10;99803.00;;;;10541082;28;20212;-77
2021/08/07 07:39:58;;;;;;;2.22;1.48;;;;;23.30;99797.00;;;;10535713;28;20208;-77
2021/08/07 07:45:00;;;;;;;5.38;1.35;;;;;23.60;99796.00;;;;10534199;28;20583;-77
2021/08/07 07:50:07;;;;;;;3.50;1.40;;;;;23.50;99811.00;;;;10508540;28;20196;-76
2021/08/07 07:55:10;;;;;;;5.20;1.33;;;;;23.90;99802.00;;;;10513810;28;20200;-76
2021/08/07 08:00:16;;;;;;;9.32;1.45;;;;;24.30;99811.00;;;;10548068;28;20215;-76
2021/08/07 08:05:20;;;;;;;7.65;1.83;;;;;24.50;99825.00;;;;10546589;28;20209;-77
2021/08/07 08:10:22;;;;;;;5.55;1.65;;;;;23.90;99802.00;;;;10490071;28;20292;-77
2021/08/07 08:15:24;;;;;;;4.90;1.27;;;;;24.80;99797.00;;;;10525112;28;20235;-77
2021/08/07 08:20:27;;;;;;;5.72;1.50;;;;;25.50;99799.00;;;;10525349;28;20262;-77
2021/08/07 08:25:29;;;;;;;4.30;1.20;;;;;25.70;99795.00;;;;10560052;28;20604;-77
2021/08/07 08:30:31;;;;;;;8.63;1.60;;;;;25.50;99797.00;;;;10589608;28;20271;-76
2021/08/07 08:35:34;;;;;;;3.40;1.25;;;;;25.00;99781.00;;;;10547284;28;20219;-77
2021/08/07 08:40:37;;;;;;;3.25;1.25;;;;;24.80;99783.00;;;;10589587;28;20195;-77
2021/08/07 08:45:42;;;;;;;5.00;1.48;;;;;25.40;99774.00;;;;10606594;28;20243;-77
2021/08/07 08:50:47;;;;;;;6.55;1.52;;;;;26.50;99775.00;;;;10528664;28;20252;-77
2021/08/07 08:55:50;;;;;;;6.22;1.30;;;;;26.50;99773.00;;;;10546844;28;20255;-77
2021/08/07 09:00:52;;;;;;;5.32;1.25;;;;;25.90;99766.00;;;;10511780;28;20248;-77
2021/08/07 09:05:55;;;;;;;5.63;1.63;;;;;25.90;99751.00;;;;10505707;28;20242;-77
2021/08/07 09:11:19;;;;;;;5.22;1.52;;;;;26.90;99751.00;;;;10512364;28;20200;-76
2021/08/07 09:16:26;;;;;;;6.45;1.63;;;;;26.70;99739.00;;;;10543032;28;20243;-77
2021/08/07 09:21:29;;;;;;;4.72;1.77;;;;;27.00;99761.00;;;;10512202;28;20188;-77
2021/08/07 09:26:31;;;;;;;4.22;1.60;;;;;27.60;99744.00;;;;10569985;27;20195;-77
2021/08/07 09:31:34;;;;;;;6.25;1.23;;;;;27.20;99753.00;;;;10553303;28;20234;-77
2021/08/07 09:36:48;;;;;;;4.60;1.13;;;;;27.90;99749.00;;;;10552849;28;20209;-77
2021/08/07 09:41:59;;;;;;;5.60;1.13;;;;;27.80;99748.00;;;;10536932;28;20199;-77
2021/08/07 09:47:12;;;;;;;5.10;1.30;;;;;27.10;99735.00;;;;10521086;28;20193;-77
2021/08/07 09:52:17;;;;;;;3.55;1.23;;;;;27.30;99741.00;;;;10496960;28;20271;-77
2021/08/07 09:57:29;;;;;;;2.22;1.20;;;;;27.30;99738.00;;;;10501940;28;20859;-77
2021/08/07 10:02:37;;;;;;;7.22;1.25;;;;;26.50;99738.00;;;;10538213;28;20219;-77
2021/08/07 10:08:02;;;;;;;4.57;1.25;;;;;26.50;99731.00;;;;10547610;28;20196;-77
2021/08/07 10:13:18;;;;;;;3.08;1.33;;;;;26.20;99724.00;;;;10510199;28;20192;-78
2021/08/07 10:18:32;;;;;;;2.50;1.20;;;;;25.70;99728.00;;;;10524699;28;20208;-77
2021/08/07 10:23:35;;;;;;;3.95;1.10;;;;;26.10;99717.00;;;;10492894;28;20203;-77
2021/08/07 10:28:43;;;;;;;3.97;0.70;;;;;27.20;99707.00;;;;10516599;28;20249;-77
2021/08/07 10:33:46;;;;;;;2.88;1.30;;;;;27.70;99706.00;;;;10539689;28;20213;-77
2021/08/07 10:38:49;;;;;;;4.45;0.93;;;;;27.80;99701.00;;;;10551330;28;20232;-77
2021/08/07 10:43:53;;;;;;;2.78;1.02;;;;;28.20;99709.00;;;;10551163;28;20574;-77
2021/08/07 10:48:55;;;;;;;4.22;1.50;;;;;28.50;99686.00;;;;10545728;28;20195;-77
2021/08/07 10:54:05;;;;;;;2.35;1.20;;;;;29.00;99689.00;;;;10495077;28;20196;-77
2021/08/07 10:59:10;;;;;;;4.40;1.08;;;;;30.20;99678.00;;;;10492311;28;20211;-78
2021/08/07 11:04:15;;;;;;;4.60;1.20;;;;;29.80;99668.00;;;;10491988;28;20200;-77
2021/08/07 11:09:19;;;;;;;2.47;1.00;;;;;29.50;99662.00;;;;10491868;28;20188;-77
2021/08/07 11:14:21;;;;;;;3.47;1.00;;;;;29.80;99657.00;;;;10547774;28;20203;-77
2021/08/07 11:19:49;;;;;;;7.88;1.48;;;;;28.80;99659.00;;;;10491319;28;20211;-78
2021/08/07 11:24:56;;;;;;;4.05;1.25;;;;;29.40;99655.00;;;;10524342;28;20200;-78
2021/08/07 11:30:19;;;;;;;3.65;1.10;;;;;29.30;99636.00;;;;10562102;28;20200;-77
2021/08/07 11:35:30;;;;;;;4.15;0.98;;;;;28.60;99640.00;;;;10509789;28;20213;-77
2021/08/07 11:40:45;;;;;;;4.82;1.30;;;;;28.10;99638.00;;;;10518882;28;20223;-77
2021/08/07 11:45:48;;;;;;;3.55;1.10;;;;;26.80;99617.00;;;;10548920;28;20248;-78
2021/08/07 11:50:56;;;;;;;2.78;1.25;;;;;25.80;99603.00;;;;10549816;28;20195;-77
2021/08/07 11:56:02;;;;;;;2.75;0.98;;;;;26.30;99594.00;;;;10581741;27;20195;-77
2021/08/07 12:01:04;;;;;;;3.13;0.93;;;;;26.30;99594.00;;;;10574063;27;20669;-77
2021/08/07 12:06:06;;;;;;;4.68;1.20;;;;;26.30;99588.00;;;;10590800;27;20184;-77
2021/08/07 12:11:13;;;;;;;2.40;1.00;;;;;27.00;99580.00;;;;10584756;27;20193;-77
2021/08/07 12:16:22;;;;;;;3.92;1.10;;;;;26.80;99565.00;;;;10565120;28;20249;-78
2021/08/07 12:21:39;;;;;;;3.08;1.20;;;;;28.70;99556.00;;;;10523558;28;20201;-77
2021/08/07 12:26:54;;;;;;;6.03;1.08;;;;;28.90;99563.00;;;;10563189;28;20194;-77
2021/08/07 12:32:04;;;;;;;3.15;0.95;;;;;27.90;99549.00;;;;10564077;28;20188;-78
2021/08/07 12:37:09;;;;;;;5.05;1.35;;;;;28.60;99542.00;;;;10536578;28;20217;-78
2021/08/07 12:42:14;;;;;;;2.40;1.00;;;;;28.40;99540.00;;;;10531510;28;20212;-78
2021/08/07 12:47:27;;;;;;;3.50;1.00;;;;;27.90;99550.00;;;;10539571;28;20188;-77
2021/08/07 12:52:29;;;;;;;2.63;1.30;;;;;27.70;99564.00;;;;10498476;28;20199;-77
2021/08/07 12:57:32;;;;;;;2.25;0.75;;;;;27.30;99550.00;;;;10538365;28;20303;-77
2021/08/07 13:02:33;;;;;;;2.97;1.02;;;;;27.20;99548.00;;;;10555473;28;20192;-78
2021/08/07 13:07:40;;;;;;;9.52;1.23;;;;;27.60;99539.00;;;;10538683;28;20279;-77
2021/08/07 13:12:43;;;;;;;2.50;1.00;;;;;28.10;99552.00;;;;10538940;28;20188;-77
2021/08/07 13:17:47;;;;;;;2.50;1.02;;;;;28.40;99537.00;;;;10538384;28;20212;-77
2021/08/07 13:23:01;;;;;;;2.88;0.82;;;;;29.00;99540.00;;;;10593598;27;20193;-77
2021/08/07 13:28:12;;;;;;;3.58;1.10;;;;;27.90;99548.00;;;;10596596;27;20642;-77
2021/08/07 13:33:14;;;;;;;2.53;0.70;;;;;27.50;99542.00;;;;10613595;27;20212;-77
2021/08/07 13:38:16;;;;;;;4.22;0.90;;;;;27.20;99540.00;;;;10596848;27;20674;-78
2021/08/07 13:43:18;;;;;;;2.20;1.08;;;;;25.80;99529.00;;;;10596309;27;20235;-78
2021/08/07 13:48:20;;;;;;;4.25;1.00;;;;;24.50;99533.00;;;;10554121;28;20263;-78
2021/08/07 13:53:22;;;;;;;2.15;0.88;;;;;23.70;99541.00;;;;10494996;28;20207;-78
2021/08/07 13:58:24;;;;;;;4.53;1.25;;;;;24.10;99545.00;;;;10495620;28;20894;-79
2021/08/07 14:03:26;;;;;;;3.05;1.23;;;;;26.40;99532.00;;;;10511026;28;20662;-78
2021/08/07 14:08:34;;;;;;;3.45;1.08;;;;;26.10;99543.00;;;;10505039;28;20697;-78
2021/08/07 14:13:36;;;;;;;3.70;1.20;;;;;26.50;99542.00;;;;10493804;28;20201;-78
2021/08/07 14:18:39;;;;;;;5.35;1.40;;;;;26.10;99532.00;;;;10477553;28;20201;-78
2021/08/07 14:23:42;;;;;;;3.83;1.35;;;;;28.30;99517.00;;;;10493662;28;20200;-77
2021/08/07 14:28:44;;;;;;;1.73;0.98;;;;;29.00;99506.00;;;;10494309;28;20544;-77
2021/08/07 14:33:46;;;;;;;3.85;1.00;;;;;29.50;99506.00;;;;10493802;28;20216;-77
2021/08/07 14:38:48;;;;;;;1.90;0.98;;;;;28.90;99501.00;;;;10526360;28;20244;-77
2021/08/07 14:43:50;;;;;;;1.73;0.75;;;;;30.00;99515.00;;;;10493408;28;20208;-77
2021/08/07 14:49:04;;;;;;;3.25;0.95;;;;;26.70;99512.00;;;;10492517;28;20246;-77
2021/08/07 14:54:06;;;;;;;3.97;1.25;;;;;24.60;99513.00;;;;10544570;28;20208;-77
2021/08/07 14:59:10;;;;;;;3.20;1.25;;;;;24.20;99517.00;;;;10508500;28;20237;-76
2021/08/07 15:04:12;;;;;;;7.97;2.90;;;;;24.00;99518.00;;;;10507516;28;20335;-78
2021/08/07 15:09:14;;;;;;;2.67;1.52;;;;;23.50;99526.00;;;;10524593;28;20238;-77
2021/08/07 15:14:16;;;;;;;3.13;1.30;;;;;22.90;99520.00;;;;10507437;28;20636;-77
2021/08/07 15:19:18;;;;;;;2.13;1.02;;;;;22.00;99530.00;;;;10523438;28;20247;-77
2021/08/07 15:24:20;;;;;;;5.00;1.30;;;;;21.30;99532.00;;;;10509572;28;20200;-77
2021/08/07 15:29:22;;;;;;;2.15;0.88;;;;;20.80;99547.00;;;;10533068;28;20659;-78
2021/08/07 15:34:24;;;;;;;3.10;1.25;;;;;20.10;99549.00;;;;10507789;28;20247;-78
2021/08/07 15:39:26;;;;;;;5.65;1.90;;;;;19.60;99547.00;;;;10492286;28;20211;-85
2021/08/07 15:44:28;;;;;;;3.50;1.35;;;;;19.20;99551.00;;;;10493352;28;20219;-81
2021/08/07 15:49:30;;;;;;;3.80;1.50;;;;;19.10;99525.00;;;;10506974;28;20193;-78
2021/08/07 15:54:33;;;;;;;3.50;1.38;;;;;18.80;99521.00;;;;10490419;28;20291;-78
2021/08/07 15:59:35;;;;;;;2.80;1.45;;;;;18.50;99538.00;;;;10490004;28;20223;-79
2021/08/07 16:04:37;;;;;;;4.00;1.55;;;;;18.40;99550.00;;;;10506672;28;20284;-78
2021/08/07 16:09:39;;;;;;;1.98;0.90;;;;;18.60;99524.00;;;;10506504;28;20189;-78
2021/08/07 16:14:41;;;;;;;1.08;0.70;;;;;18.90;99518.00;;;;10523604;28;20189;-79
2021/08/07 16:19:42;;;;;;;3.28;1.13;;;;;19.20;99533.00;;;;10489217;28;20209;-78
2021/08/07 16:24:46;;;;;;;2.45;0.98;;;;;19.20;99561.00;;;;10540639;28;20230;-78
2021/08/07 16:29:48;;;;;;;4.43;1.13;;;;;19.10;99564.00;;;;10523761;28;20548;-78
2021/08/07 16:34:50;;;;;;;3.05;1.17;;;;;19.10;99563.00;;;;10531743;28;20212;-79
2021/08/07 16:39:53;;;;;;;3.63;1.10;;;;;19.00;99571.00;;;;10548604;28;20295;-78
2021/08/07 16:44:55;;;;;;;2.88;1.20;;;;;18.80;99566.00;;;;10531791;28;20207;-78
2021/08/07 16:49:57;;;;;;;1.10;0.68;;;;;18.90;99563.00;;;;10532995;28;20846;-78
2021/08/07 16:54:59;;;;;;;1.08;0.82;;;;;18.90;99554.00;;;;10566084;28;20188;-79
2021/08/07 17:00:03;;;;;;;2.00;0.80;;;;;19.00;99563.00;;;;10530808;28;20686;-78
2021/08/07 17:05:05;;;;;;;4.35;1.60;;;;;19.20;99569.00;;;;10526805;28;20279;-78
2021/08/07 17:10:09;;;;;;;1.10;0.70;;;;;19.50;99579.00;;;;10549239;28;20659;-78
2021/08/07 17:15:11;;;;;;;0.93;0.65;;;;;19.50;99589.00;;;;10565340;28;20203;-77
2021/08/07 17:20:29;;;;;;;0.90;0.68;;;;;19.50;99592.00;;;;10568266;28;20662;-78
2021/08/07 17:25:35;;;;;;;2.63;1.02;;;;;19.30;99609.00;;;;10548624;28;20201;-77
2021/08/07 17:30:37;;;;;;;4.05;1.92;;;;;19.20;99609.00;;;;10538198;28;20191;-77
2021/08/07 17:35:39;;;;;;;4.05;1.60;;;;;19.00;99609.00;;;;10572397;28;20205;-77
2021/08/07 17:40:41;;;;;;;2.40;1.65;;;;;18.80;99606.00;;;;10571143;28;20278;-77
2021/08/07 17:45:43;;;;;;;1.45;1.30;;;;;18.50;99609.00;;;;10554059;28;20196;-77
2021/08/07 17:50:45;;;;;;;2.15;1.60;;;;;18.30;99613.00;;;;10553558;28;20196;-77
2021/08/07 17:55:47;;;;;;;2.45;1.50;;;;;18.10;99603.00;;;;10566006;27;20199;-77
2021/08/07 18:00:49;;;;;;;2.30;1.38;;;;;18.00;99605.00;;;;10537296;28;20215;-77
2021/08/07 18:05:51;;;;;;;1.48;1.30;;;;;17.90;99616.00;;;;10535080;28;20192;-77
2021/08/07 18:10:53;;;;;;;1.88;1.33;;;;;17.60;99623.00;;;;10511016;28;20238;-77
2021/08/07 18:15:55;;;;;;;2.80;1.40;;;;;17.40;99623.00;;;;10511060;28;20199;-77
2021/08/07 18:20:59;;;;;;;2.70;1.33;;;;;17.30;99630.00;;;;10510806;28;20694;-77
2021/08/07 18:26:04;;;;;;;4.43;1.40;;;;;17.30;99635.00;;;;10494151;28;20283;-77
2021/08/07 18:31:07;;;;;;;4.13;1.23;;;;;17.30;99632.00;;;;10510814;28;20192;-77
2021/08/07 18:36:09;;;;;;;3.05;1.33;;;;;17.20;99628.00;;;;10526459;28;20675;-77
2021/08/07 18:41:12;;;;;;;2.28;1.05;;;;;16.90;99623.00;;;;10542331;28;20698;-77
2021/08/07 18:46:18;;;;;;;2.03;0.90;;;;;16.70;99617.00;;;;10551790;28;20655;-77
2021/08/07 18:51:20;;;;;;;4.20;1.40;;;;;16.50;99600.00;;;;10534896;28;20185;-77
2021/08/07 18:56:22;;;;;;;4.90;1.23;;;;;16.30;99601.00;;;;10551361;28;20194;-77
2021/08/07 19:01:41;;;;;;;5.47;1.40;;;;;16.10;99600.00;;;;10536827;28;20227;-78
2021/08/07 19:06:43;;;;;;;4.93;1.20;;;;;16.00;99600.00;;;;10475507;28;20435;-77
2021/08/07 19:11:45;;;;;;;3.97;1.77;;;;;16.00;99605.00;;;;10525045;28;20196;-77
2021/08/07 19:16:47;;;;;;;4.20;1.20;;;;;16.00;99600.00;;;;10491623;28;20212;-77
2021/08/07 19:21:49;;;;;;;2.77;1.30;;;;;16.10;99597.00;;;;10508194;28;20533;-77
2021/08/07 19:26:51;;;;;;;4.07;1.40;;;;;16.10;99615.00;;;;10508206;28;20196;-78
2021/08/07 19:31:54;;;;;;;1.93;1.20;;;;;16.10;99622.00;;;;10508556;28;20247;-79
2021/08/07 19:36:56;;;;;;;2.40;1.50;;;;;16.00;99626.00;;;;10507809;28;20188;-79
2021/08/07 19:41:58;;;;;;;3.70;1.30;;;;;15.90;99628.00;;;;10490785;28;20219;-78
2021/08/07 19:47:00;;;;;;;3.70;1.20;;;;;15.80;99643.00;;;;10524002;28;20197;-78
2021/08/07 19:52:02;;;;;;;2.50;1.37;;;;;15.80;99647.00;;;;10506691;28;20185;-77
2021/08/07 19:57:05;;;;;;;2.93;1.43;;;;;15.80;99656.00;;;;10507204;28;20232;-80
2021/08/07 20:02:07;;;;;;;2.87;1.33;;;;;15.80;99660.00;;;;10507418;28;20216;-78
2021/08/07 20:07:09;;;;;;;2.10;1.50;;;;;15.80;99657.00;;;;10507187;28;20254;-78
2021/08/07 20:12:12;;;;;;;3.37;1.40;;;;;15.80;99667.00;;;;10507914;28;20181;-78
2021/08/07 20:17:14;;;;;;;2.97;1.57;;;;;15.80;99676.00;;;;10491462;28;20197;-77
2021/08/07 20:22:16;;;;;;;4.33;1.80;;;;;15.90;99673.00;;;;10525058;28;20212;-78
2021/08/07 20:27:19;;;;;;;1.70;1.60;;;;;15.90;99674.00;;;;10558249;27;20231;-78
2021/08/07 20:32:21;;;;;;;4.80;1.90;;;;;15.90;99680.00;;;;10575124;28;20204;-77
2021/08/07 20:37:23;;;;;;;3.50;2.00;;;;;16.00;99680.00;;;;10574460;28;20230;-77
2021/08/07 20:42:25;;;;;;;3.10;1.80;;;;;16.00;99688.00;;;;10607912;27;20195;-78
2021/08/07 20:47:27;;;;;;;5.17;1.60;;;;;16.00;99693.00;;;;10591004;28;20190;-78
2021/08/07 20:52:29;;;;;;;2.97;1.60;;;;;16.00;99691.00;;;;10573888;28;20693;-78
2021/08/07 20:57:31;;;;;;;4.37;1.97;;;;;16.00;99695.00;;;;10548919;28;20193;-79
2021/08/07 21:02:34;;;;;;;2.10;1.80;;;;;16.00;99714.00;;;;10534761;28;20204;-79
2021/08/07 21:07:37;;;;;;;5.23;2.27;;;;;16.00;99720.00;;;;10557144;28;20651;-83
2021/08/07 21:12:41;;;;;;;6.57;2.23;;;;;15.80;99727.00;;;;10523788;28;20226;-83
2021/08/07 21:17:44;;;;;;;3.97;2.87;;;;;15.70;99713.00;;;;10541602;28;20196;-83
2021/08/07 21:22:46;;;;;;;5.20;2.30;;;;;15.60;99732.00;;;;10558438;28;20203;-81
2021/08/07 21:27:50;;;;;;;6.73;3.40;;;;;15.50;99734.00;;;;10556206;28;20207;-80
2021/08/07 21:32:53;;;;;;;7.80;2.70;;;;;15.50;99742.00;;;;10538566;28;20559;-79
2021/08/07 21:37:54;;;;;;;5.50;3.43;;;;;15.50;99752.00;;;;10537976;28;20200;-79
2021/08/07 21:42:58;;;;;;;9.40;3.10;;;;;15.50;99761.00;;;;10554850;28;20200;-80
2021/08/07 21:48:01;;;;;;;6.27;3.80;;;;;15.60;99772.00;;;;10538236;28;20196;-79
2021/08/07 21:53:04;;;;;;;5.47;2.80;;;;;15.60;99770.00;;;;10538133;28;20524;-79
2021/08/07 21:58:06;;;;;;;3.40;2.77;;;;;15.60;99774.00;;;;10553984;28;20200;-79
2021/08/07 22:03:09;;;;;;;4.50;2.93;;;;;15.60;99782.00;;;;10554144;28;20203;-78
2021/08/07 22:08:14;;;;;;;8.70;3.07;;;;;15.60;99786.00;;;;10536889;28;20387;-78
2021/08/07 22:13:19;;;;;;;5.67;3.77;;;;;15.60;99785.00;;;;10537286;28;20196;-78
2021/08/07 22:18:22;;;;;;;5.57;3.50;;;;;15.60;99797.00;;;;10553476;28;20200;-78
2021/08/07 22:23:26;;;;;;;8.20;3.83;;;;;15.70;99794.00;;;;10570475;28;20196;-78
2021/08/07 22:28:29;;;;;;;9.70;4.30;;;;;15.70;99802.00;;;;10536831;28;20181;-78
2021/08/07 22:33:31;;;;;;;10.60;4.40;;;;;15.70;99810.00;;;;10570723;28;20212;-78
2021/08/07 22:38:33;;;;;;;8.83;4.40;;;;;15.70;99800.00;;;;10537695;28;20216;-78
2021/08/07 22:43:35;;;;;;;10.00;4.70;;;;;15.70;99812.00;;;;10570778;28;20643;-78
2021/08/07 22:48:37;;;;;;;9.60;4.40;;;;;15.70;99824.00;;;;10536306;28;20196;-79
2021/08/07 22:53:40;;;;;;;9.53;4.27;;;;;15.70;99819.00;;;;10563086;27;20200;-80
2021/08/07 22:58:43;;;;;;;9.87;4.87;;;;;15.60;99811.00;;;;10546885;28;20758;-81
2021/08/07 23:03:45;;;;;;;12.10;4.97;;;;;15.50;99828.00;;;;10553652;28;20291;-80
2021/08/07 23:08:47;;;;;;;13.37;5.07;;;;;15.50;99831.00;;;;10537704;28;20188;-80
2021/08/07 23:13:49;;;;;;;9.57;4.63;;;;;15.50;99836.00;;;;10536932;28;20192;-81
2021/08/07 23:18:51;;;;;;;12.33;5.70;;;;;15.40;99843.00;;;;10553081;28;20276;-81
2021/08/07 23:23:53;;;;;;;8.20;4.57;;;;;15.40;99840.00;;;;10518857;28;20184;-80
2021/08/07 23:28:55;;;;;;;13.00;4.77;;;;;15.40;99854.00;;;;10550264;28;20562;-79
2021/08/07 23:33:57;;;;;;;7.70;4.80;;;;;15.40;99854.00;;;;10535537;28;20220;-80
2021/08/07 23:38:59;;;;;;;10.10;4.83;;;;;15.30;99874.00;;;;10534431;28;20219;-79
2021/08/07 23:44:02;;;;;;;12.60;5.20;;;;;15.30;99868.00;;;;10550923;28;20621;-79
2021/08/07 23:49:05;;;;;;;12.97;5.77;;;;;15.40;99885.00;;;;10534032;28;20286;-79
2021/08/07 23:54:09;;;;;;;10.50;4.43;;;;;15.40;99880.00;;;;10565284;27;20234;-79
2021/08/07 23:59:11;;;;;;;12.40;4.70;;;;;15.40;99885.00;;;;10593399;27;20562;-79
